Time;durP1;ratioP1;P1;durP2;ratioP2;P2;SDS_P1;SDS_P2;PMS_P1;PMS_P2;Temp;Humidity;BMP_temperature;BMP_pressure;BME280_temperature;BME280_humidity;BME280_pressure;Samples;Min_cycle;Max_cycle;Signal;HPM_P1;HPM_P2
2022/11/28 00:02:05;;;;;;;9.70;6.25;;;;;;;;;;5122438;27;20063;-71
2022/11/28 00:04:31;;;;;;;10.70;6.47;;;;;;;;;;5131599;27;20051;-71
2022/11/28 00:06:57;;;;;;;11.43;6.82;;;;;;;;;;5113841;27;20047;-70
2022/11/28 00:09:24;;;;;;;13.60;6.28;;;;;;;;;;5113548;27;20134;-70
2022/11/28 00:11:50;;;;;;;11.15;6.15;;;;;;;;;;5129986;27;20043;-70
2022/11/28 00:14:16;;;;;;;11.30;6.40;;;;;;;;;;5123356;27;20035;-70
2022/11/28 00:16:42;;;;;;;10.77;6.70;;;;;;;;;;5124565;27;20039;-71
2022/11/28 00:19:10;;;;;;;12.57;6.95;;;;;;;;;;5131215;27;20100;-70
2022/11/28 00:21:36;;;;;;;13.93;7.40;;;;;;;;;;5133379;28;20135;-71
2022/11/28 00:24:03;;;;;;;10.93;6.82;;;;;;;;;;5133472;28;20137;-71
2022/11/28 00:26:47;;;;;;;9.20;6.93;;;;;;;;;;5133065;28;20118;-70
2022/11/28 00:29:13;;;;;;;9.68;6.90;;;;;;;;;;5133236;28;20465;-70
2022/11/28 00:31:41;;;;;;;11.75;6.95;;;;;;;;;;5132757;28;20043;-70
2022/11/28 00:34:08;;;;;;;10.95;5.93;;;;;;;;;;5133958;28;20082;-71
2022/11/28 00:36:35;;;;;;;10.63;6.75;;;;;;;;;;5133376;28;20074;-71
2022/11/28 00:39:01;;;;;;;12.60;6.78;;;;;;;;;;5133516;28;20039;-70
2022/11/28 00:41:29;;;;;;;10.30;6.85;;;;;;;;;;5133579;28;20039;-71
2022/11/28 00:43:56;;;;;;;10.35;6.70;;;;;;;;;;5133508;28;20405;-70
2022/11/28 00:46:22;;;;;;;11.70;6.90;;;;;;;;;;5130102;28;20035;-70
2022/11/28 00:48:49;;;;;;;10.63;7.07;;;;;;;;;;5121815;28;20035;-71
2022/11/28 00:51:16;;;;;;;10.45;7.00;;;;;;;;;;5132474;27;20108;-70
2022/11/28 00:53:48;;;;;;;10.45;6.82;;;;;;;;;;5125084;27;20105;-72
2022/11/28 00:56:15;;;;;;;11.48;7.10;;;;;;;;;;5116528;27;20054;-72
2022/11/28 00:58:42;;;;;;;10.55;6.93;;;;;;;;;;5134851;27;20039;-70
2022/11/28 01:01:09;;;;;;;11.75;7.18;;;;;;;;;;5135396;27;20127;-70
2022/11/28 01:03:36;;;;;;;10.95;7.20;;;;;;;;;;5136339;27;20411;-70
2022/11/28 01:06:02;;;;;;;12.15;7.47;;;;;;;;;;5135213;27;20054;-72
2022/11/28 01:08:28;;;;;;;11.98;7.72;;;;;;;;;;5136987;27;20084;-72
2022/11/28 01:10:54;;;;;;;11.82;7.28;;;;;;;;;;5136025;27;20045;-72
2022/11/28 01:13:20;;;;;;;12.30;7.38;;;;;;;;;;5133454;27;20390;-72
2022/11/28 01:15:47;;;;;;;12.00;7.25;;;;;;;;;;5128707;27;20043;-70
2022/11/28 01:18:13;;;;;;;11.77;7.65;;;;;;;;;;5134511;27;20036;-70
2022/11/28 01:20:39;;;;;;;11.77;8.15;;;;;;;;;;5130706;27;20043;-70
2022/11/28 01:23:05;;;;;;;11.13;7.40;;;;;;;;;;5124856;27;20053;-73
2022/11/28 01:25:31;;;;;;;12.27;7.50;;;;;;;;;;5136989;27;20493;-72
2022/11/28 01:27:57;;;;;;;11.32;8.02;;;;;;;;;;5123822;27;20043;-71
2022/11/28 01:30:23;;;;;;;13.20;7.80;;;;;;;;;;5135184;27;20486;-72
2022/11/28 01:32:49;;;;;;;15.13;7.70;;;;;;;;;;5118601;27;20047;-72
2022/11/28 01:35:15;;;;;;;12.65;7.68;;;;;;;;;;5135926;27;20417;-72
2022/11/28 01:37:41;;;;;;;12.43;7.97;;;;;;;;;;5136013;27;20047;-72
2022/11/28 01:40:08;;;;;;;12.10;8.30;;;;;;;;;;5136661;27;20435;-72
2022/11/28 01:42:34;;;;;;;10.88;7.05;;;;;;;;;;5136435;27;20047;-72
2022/11/28 01:45:04;;;;;;;12.75;8.35;;;;;;;;;;5136898;27;20039;-72
2022/11/28 01:47:30;;;;;;;13.52;7.82;;;;;;;;;;5136152;27;20039;-72
2022/11/28 01:49:56;;;;;;;11.43;7.57;;;;;;;;;;5136467;27;20031;-72
2022/11/28 01:52:23;;;;;;;13.82;8.43;;;;;;;;;;5135170;27;20047;-70
2022/11/28 01:54:51;;;;;;;12.23;7.72;;;;;;;;;;5129334;27;20036;-70
2022/11/28 01:57:19;;;;;;;13.18;8.18;;;;;;;;;;5132141;27;20050;-70
2022/11/28 01:59:52;;;;;;;9.75;7.65;;;;;;;;;;5133566;27;20485;-70
2022/11/28 02:02:22;;;;;;;10.68;7.95;;;;;;;;;;5133868;27;20537;-72
2022/11/28 02:04:49;;;;;;;11.55;8.00;;;;;;;;;;5132852;27;20501;-72
2022/11/28 02:07:16;;;;;;;13.32;8.10;;;;;;;;;;5135580;27;20043;-73
2022/11/28 02:09:42;;;;;;;13.10;8.70;;;;;;;;;;5130675;27;20039;-72
2022/11/28 02:12:08;;;;;;;12.73;8.13;;;;;;;;;;5128360;27;20096;-72
2022/11/28 02:14:42;;;;;;;13.90;7.70;;;;;;;;;;5127808;27;20126;-71
2022/11/28 02:17:40;;;;;;;11.13;7.70;;;;;;;;;;5133790;27;20039;-72
2022/11/28 02:20:23;;;;;;;12.52;6.95;;;;;;;;;;5077948;27;20074;-72
2022/11/28 02:23:02;;;;;;;12.18;8.15;;;;;;;;;;5132705;27;20517;-72
2022/11/28 02:25:31;;;;;;;11.10;6.75;;;;;;;;;;5122155;27;20047;-72
2022/11/28 02:28:16;;;;;;;14.93;8.07;;;;;;;;;;5134993;27;20163;-72
2022/11/28 02:31:02;;;;;;;12.45;8.07;;;;;;;;;;5115985;27;20032;-72
2022/11/28 02:33:37;;;;;;;11.48;7.65;;;;;;;;;;5097109;28;20393;-72
2022/11/28 02:36:15;;;;;;;13.32;7.80;;;;;;;;;;5115187;28;20123;-72
2022/11/28 02:38:46;;;;;;;11.77;7.90;;;;;;;;;;5120981;27;20151;-72
2022/11/28 02:41:15;;;;;;;12.05;8.18;;;;;;;;;;5117310;27;20477;-72
2022/11/28 02:43:51;;;;;;;12.25;8.30;;;;;;;;;;5130558;27;20452;-72
2022/11/28 02:46:22;;;;;;;13.80;7.63;;;;;;;;;;5115586;27;20036;-71
2022/11/28 02:48:54;;;;;;;12.13;8.20;;;;;;;;;;5128584;27;20148;-69
2022/11/28 02:51:25;;;;;;;13.32;8.02;;;;;;;;;;5115244;27;20517;-70
2022/11/28 02:53:53;;;;;;;13.68;8.48;;;;;;;;;;5119882;27;20043;-69
2022/11/28 02:56:19;;;;;;;11.52;8.25;;;;;;;;;;5126941;27;20048;-69
2022/11/28 02:58:45;;;;;;;11.68;8.18;;;;;;;;;;5114178;27;20075;-70
2022/11/28 03:01:15;;;;;;;12.18;8.07;;;;;;;;;;5127663;27;20505;-72
2022/11/28 03:04:01;;;;;;;13.15;8.70;;;;;;;;;;5130938;27;20035;-72
2022/11/28 03:06:46;;;;;;;11.38;8.55;;;;;;;;;;5132437;27;20038;-72
2022/11/28 03:09:18;;;;;;;12.90;8.43;;;;;;;;;;5133048;27;20034;-72
2022/11/28 03:11:44;;;;;;;16.08;8.88;;;;;;;;;;5132812;27;20045;-70
2022/11/28 03:14:25;;;;;;;13.10;8.35;;;;;;;;;;5131220;27;20045;-70
2022/11/28 03:16:59;;;;;;;14.30;9.27;;;;;;;;;;5122302;27;20089;-69
2022/11/28 03:19:32;;;;;;;14.23;9.15;;;;;;;;;;5128453;27;20138;-70
2022/11/28 03:22:01;;;;;;;11.43;9.05;;;;;;;;;;5128520;27;20410;-70
2022/11/28 03:24:33;;;;;;;15.52;8.80;;;;;;;;;;5133705;27;20035;-72
2022/11/28 03:27:07;;;;;;;13.85;9.30;;;;;;;;;;5133988;27;20047;-72
2022/11/28 03:29:41;;;;;;;14.43;9.77;;;;;;;;;;5132587;27;20063;-72
2022/11/28 03:32:19;;;;;;;12.50;8.70;;;;;;;;;;5121590;27;20048;-72
2022/11/28 03:34:47;;;;;;;13.57;8.82;;;;;;;;;;5113834;28;20093;-72
2022/11/28 03:37:31;;;;;;;13.00;9.02;;;;;;;;;;5122243;27;20042;-72
2022/11/28 03:39:59;;;;;;;12.95;8.90;;;;;;;;;;5123936;27;20039;-71
2022/11/28 03:42:28;;;;;;;12.13;8.77;;;;;;;;;;5134515;27;20039;-72
2022/11/28 03:45:05;;;;;;;12.00;8.95;;;;;;;;;;5132386;27;20054;-72
2022/11/28 03:47:34;;;;;;;12.52;9.05;;;;;;;;;;5132997;27;20039;-72
2022/11/28 03:50:02;;;;;;;14.40;9.07;;;;;;;;;;5128336;27;20163;-72
2022/11/28 03:52:32;;;;;;;14.90;9.65;;;;;;;;;;5127565;27;20478;-72
2022/11/28 03:55:03;;;;;;;13.45;9.00;;;;;;;;;;5125090;27;20046;-71
2022/11/28 03:57:34;;;;;;;13.32;8.95;;;;;;;;;;5133014;27;20046;-72
2022/11/28 04:00:03;;;;;;;12.35;8.90;;;;;;;;;;5133201;27;20043;-71
2022/11/28 04:02:29;;;;;;;12.75;9.13;;;;;;;;;;5130510;27;20051;-72
2022/11/28 04:05:01;;;;;;;15.13;9.73;;;;;;;;;;5132699;27;20046;-71
2022/11/28 04:07:39;;;;;;;15.93;10.32;;;;;;;;;;5132323;27;20118;-72
2022/11/28 04:10:08;;;;;;;15.55;10.40;;;;;;;;;;5132449;27;20043;-72
2022/11/28 04:12:53;;;;;;;17.38;11.77;;;;;;;;;;5132839;27;20047;-71
2022/11/28 04:15:39;;;;;;;17.25;10.82;;;;;;;;;;5130481;27;20035;-72
2022/11/28 04:18:05;;;;;;;16.35;11.18;;;;;;;;;;5111494;27;20509;-72
2022/11/28 04:20:35;;;;;;;16.13;11.55;;;;;;;;;;5132241;27;20084;-72
2022/11/28 04:23:04;;;;;;;18.65;12.23;;;;;;;;;;5128460;28;20039;-72
2022/11/28 04:25:33;;;;;;;17.42;12.30;;;;;;;;;;5127695;27;20082;-69
2022/11/28 04:28:03;;;;;;;19.98;12.95;;;;;;;;;;5127772;28;20482;-70
2022/11/28 04:30:29;;;;;;;20.75;13.63;;;;;;;;;;5119135;28;20044;-70
2022/11/28 04:32:58;;;;;;;18.92;13.35;;;;;;;;;;5132428;28;20505;-70
2022/11/28 04:35:32;;;;;;;18.83;13.38;;;;;;;;;;5130030;28;20114;-70
2022/11/28 04:37:59;;;;;;;21.15;14.80;;;;;;;;;;5132535;28;20057;-70
2022/11/28 04:40:26;;;;;;;21.52;14.73;;;;;;;;;;5131635;28;20031;-70
2022/11/28 04:42:56;;;;;;;21.42;14.73;;;;;;;;;;5114320;28;20426;-72
2022/11/28 04:45:27;;;;;;;20.55;14.52;;;;;;;;;;5125983;28;20036;-70
2022/11/28 04:47:53;;;;;;;27.02;15.35;;;;;;;;;;5131584;28;20094;-71
2022/11/28 04:50:21;;;;;;;22.15;15.35;;;;;;;;;;5122028;28;20036;-71
2022/11/28 04:53:08;;;;;;;24.17;15.68;;;;;;;;;;5132938;28;20115;-72
2022/11/28 04:55:34;;;;;;;23.23;15.13;;;;;;;;;;5124180;28;20040;-70
2022/11/28 04:58:18;;;;;;;22.02;14.48;;;;;;;;;;5133638;28;20046;-69
2022/11/28 05:00:46;;;;;;;22.38;15.10;;;;;;;;;;5118484;28;20047;-70
2022/11/28 05:03:12;;;;;;;22.15;15.25;;;;;;;;;;5132729;28;20047;-71
2022/11/28 05:05:46;;;;;;;22.52;15.77;;;;;;;;;;5131328;28;20051;-72
2022/11/28 05:08:12;;;;;;;21.25;15.43;;;;;;;;;;5132987;28;20108;-72
2022/11/28 05:10:38;;;;;;;25.58;16.13;;;;;;;;;;5124833;28;20043;-72
2022/11/28 05:13:05;;;;;;;22.42;16.67;;;;;;;;;;5107334;28;20043;-72
2022/11/28 05:15:31;;;;;;;25.35;18.15;;;;;;;;;;5126143;28;20040;-69
2022/11/28 05:17:57;;;;;;;28.23;18.42;;;;;;;;;;5127799;28;20031;-69
2022/11/28 05:20:23;;;;;;;28.30;19.60;;;;;;;;;;5128026;28;20191;-69
2022/11/28 05:22:49;;;;;;;34.03;20.35;;;;;;;;;;5120581;28;20064;-72
2022/11/28 05:25:15;;;;;;;27.17;19.88;;;;;;;;;;5129898;28;20042;-71
2022/11/28 05:27:41;;;;;;;27.23;20.00;;;;;;;;;;5113513;28;20051;-72
2022/11/28 05:30:08;;;;;;;29.40;21.05;;;;;;;;;;5131613;28;20047;-72
2022/11/28 05:32:35;;;;;;;31.58;21.85;;;;;;;;;;5125683;28;20047;-72
2022/11/28 05:35:01;;;;;;;32.10;21.13;;;;;;;;;;5125316;28;20044;-71
2022/11/28 05:37:27;;;;;;;27.70;20.98;;;;;;;;;;5132677;27;20493;-69
2022/11/28 05:39:53;;;;;;;29.30;21.92;;;;;;;;;;5116097;28;20044;-70
2022/11/28 05:42:19;;;;;;;30.77;22.23;;;;;;;;;;5116268;28;20055;-71
2022/11/28 05:44:46;;;;;;;29.23;22.08;;;;;;;;;;5116046;27;20051;-71
2022/11/28 05:47:14;;;;;;;31.27;22.10;;;;;;;;;;5135611;27;20047;-71
2022/11/28 05:49:40;;;;;;;32.10;21.73;;;;;;;;;;5135152;27;20122;-72
2022/11/28 05:52:06;;;;;;;29.50;22.35;;;;;;;;;;5136527;27;20054;-71
2022/11/28 05:54:32;;;;;;;28.95;22.50;;;;;;;;;;5128662;27;20047;-71
2022/11/28 05:56:58;;;;;;;27.63;22.65;;;;;;;;;;5132310;27;20046;-71
2022/11/28 05:59:24;;;;;;;29.98;22.08;;;;;;;;;;5135490;27;20066;-71
2022/11/28 06:01:50;;;;;;;30.98;23.00;;;;;;;;;;5133281;27;20051;-71
2022/11/28 06:04:17;;;;;;;28.92;23.10;;;;;;;;;;5115866;27;20095;-71
2022/11/28 06:06:43;;;;;;;28.35;23.30;;;;;;;;;;5134265;27;20036;-71
2022/11/28 06:09:09;;;;;;;31.85;23.80;;;;;;;;;;5134273;27;20054;-71
2022/11/28 06:11:35;;;;;;;32.00;23.25;;;;;;;;;;5133417;27;20044;-71
2022/11/28 06:14:01;;;;;;;29.60;23.42;;;;;;;;;;5131676;27;20036;-71
2022/11/28 06:16:28;;;;;;;32.60;24.67;;;;;;;;;;5133209;27;20114;-72
2022/11/28 06:18:55;;;;;;;32.65;23.70;;;;;;;;;;5131611;27;20035;-71
2022/11/28 06:21:22;;;;;;;26.10;22.50;;;;;;;;;;5134528;27;20790;-71
2022/11/28 06:23:48;;;;;;;28.98;21.95;;;;;;;;;;5121551;27;20039;-71
2022/11/28 06:26:15;;;;;;;30.55;22.73;;;;;;;;;;5131928;27;20386;-72
2022/11/28 06:28:42;;;;;;;26.08;22.88;;;;;;;;;;5133996;27;20054;-71
2022/11/28 06:31:12;;;;;;;28.38;21.98;;;;;;;;;;5118943;27;20038;-71
2022/11/28 06:33:38;;;;;;;26.20;21.57;;;;;;;;;;5134448;27;20104;-71
2022/11/28 06:36:05;;;;;;;28.38;21.67;;;;;;;;;;5132596;27;20400;-71
2022/11/28 06:38:31;;;;;;;27.52;21.55;;;;;;;;;;5134763;27;20043;-71
2022/11/28 06:41:02;;;;;;;25.23;21.38;;;;;;;;;;5116612;27;20410;-71
2022/11/28 06:43:29;;;;;;;24.27;20.70;;;;;;;;;;5135651;27;20399;-72
2022/11/28 06:45:55;;;;;;;26.63;20.60;;;;;;;;;;5132848;27;20035;-72
2022/11/28 06:48:21;;;;;;;24.52;20.25;;;;;;;;;;5131028;27;20035;-71
2022/11/28 06:50:47;;;;;;;22.00;19.58;;;;;;;;;;5132907;27;20035;-71
2022/11/28 06:53:13;;;;;;;23.98;19.67;;;;;;;;;;5116595;27;20108;-71
2022/11/28 06:55:40;;;;;;;24.42;18.83;;;;;;;;;;5128700;27;20485;-71
2022/11/28 06:58:06;;;;;;;21.65;18.08;;;;;;;;;;5128962;27;20048;-71
2022/11/28 07:00:32;;;;;;;24.77;18.83;;;;;;;;;;5132204;27;20047;-71
2022/11/28 07:02:58;;;;;;;24.60;18.70;;;;;;;;;;5113174;27;20422;-71
2022/11/28 07:05:29;;;;;;;23.15;18.23;;;;;;;;;;5131144;27;20077;-72
2022/11/28 07:07:56;;;;;;;24.80;18.17;;;;;;;;;;5130515;27;20501;-72
2022/11/28 07:10:22;;;;;;;22.95;17.83;;;;;;;;;;5131649;27;20393;-72
2022/11/28 07:12:55;;;;;;;23.52;18.83;;;;;;;;;;5126375;27;20043;-72
2022/11/28 07:15:21;;;;;;;28.35;19.98;;;;;;;;;;5129841;27;20439;-72
2022/11/28 07:17:47;;;;;;;24.08;19.08;;;;;;;;;;5110841;27;20043;-72
2022/11/28 07:20:13;;;;;;;27.48;18.40;;;;;;;;;;5132149;27;20038;-72
2022/11/28 07:22:40;;;;;;;28.83;20.23;;;;;;;;;;5123763;27;20466;-72
2022/11/28 07:25:06;;;;;;;25.15;19.25;;;;;;;;;;5129885;27;20070;-72
2022/11/28 07:27:32;;;;;;;28.15;21.02;;;;;;;;;;5129971;27;20039;-72
2022/11/28 07:29:58;;;;;;;27.23;21.35;;;;;;;;;;5133397;27;20046;-71
2022/11/28 07:32:24;;;;;;;31.40;21.92;;;;;;;;;;5126071;27;20472;-72
2022/11/28 07:34:50;;;;;;;32.25;22.67;;;;;;;;;;5128975;27;20055;-72
2022/11/28 07:37:16;;;;;;;30.35;21.58;;;;;;;;;;5133920;27;20047;-72
2022/11/28 07:39:43;;;;;;;30.88;20.45;;;;;;;;;;5118395;27;20423;-72
2022/11/28 07:42:10;;;;;;;28.10;19.88;;;;;;;;;;5129912;27;20397;-73
2022/11/28 07:44:36;;;;;;;27.20;20.50;;;;;;;;;;5120046;27;20061;-72
2022/11/28 07:47:02;;;;;;;30.08;21.20;;;;;;;;;;5125789;27;20397;-72
2022/11/28 07:49:28;;;;;;;29.90;20.88;;;;;;;;;;5123778;27;20048;-72
2022/11/28 07:51:54;;;;;;;28.83;21.17;;;;;;;;;;5130103;27;20508;-72
2022/11/28 07:54:21;;;;;;;28.77;21.90;;;;;;;;;;5133100;27;20054;-72
2022/11/28 07:56:47;;;;;;;30.38;21.15;;;;;;;;;;5133235;27;20122;-72
2022/11/28 07:59:13;;;;;;;28.92;21.33;;;;;;;;;;5133216;27;20042;-72
2022/11/28 08:01:39;;;;;;;27.33;21.38;;;;;;;;;;5131918;27;20149;-72
2022/11/28 08:04:06;;;;;;;25.52;20.05;;;;;;;;;;5133217;27;20051;-72
2022/11/28 08:06:35;;;;;;;25.33;20.20;;;;;;;;;;5123928;27;20108;-72
2022/11/28 08:09:01;;;;;;;26.70;20.98;;;;;;;;;;5126232;27;20530;-72
2022/11/28 08:11:29;;;;;;;25.70;21.58;;;;;;;;;;5099760;28;20506;-72
2022/11/28 08:13:55;;;;;;;26.63;20.98;;;;;;;;;;5124495;27;20043;-72
2022/11/28 08:16:23;;;;;;;26.75;21.83;;;;;;;;;;5126340;27;20053;-72
2022/11/28 08:18:50;;;;;;;27.58;22.10;;;;;;;;;;5121302;27;20405;-72
2022/11/28 08:21:20;;;;;;;31.63;22.58;;;;;;;;;;5120821;27;20036;-72
2022/11/28 08:23:46;;;;;;;26.58;21.13;;;;;;;;;;5113438;28;20439;-72
2022/11/28 08:26:16;;;;;;;26.40;21.33;;;;;;;;;;5132204;28;20398;-72
2022/11/28 08:28:42;;;;;;;27.25;21.20;;;;;;;;;;5113405;28;20138;-72
2022/11/28 08:31:28;;;;;;;27.92;21.73;;;;;;;;;;5126712;28;20042;-72
2022/11/28 08:33:55;;;;;;;30.08;22.13;;;;;;;;;;5115643;27;20051;-72
2022/11/28 08:36:22;;;;;;;27.67;22.48;;;;;;;;;;5114281;28;20072;-72
2022/11/28 08:38:48;;;;;;;28.33;22.80;;;;;;;;;;5132557;28;20173;-72
2022/11/28 08:41:15;;;;;;;30.35;22.85;;;;;;;;;;5130017;28;20115;-72
2022/11/28 08:43:42;;;;;;;28.42;22.73;;;;;;;;;;5130967;28;20035;-72
2022/11/28 08:46:12;;;;;;;27.98;23.08;;;;;;;;;;5121103;28;20379;-72
2022/11/28 08:48:39;;;;;;;26.65;22.38;;;;;;;;;;5132283;28;20039;-72
2022/11/28 08:51:05;;;;;;;28.17;23.48;;;;;;;;;;5125511;28;20560;-72
2022/11/28 08:53:32;;;;;;;29.17;23.05;;;;;;;;;;5128183;28;20055;-72
2022/11/28 08:55:59;;;;;;;32.30;25.92;;;;;;;;;;5118515;28;20040;-72
2022/11/28 08:58:25;;;;;;;32.90;25.33;;;;;;;;;;5131209;28;20164;-72
2022/11/28 09:00:51;;;;;;;32.78;23.90;;;;;;;;;;5131135;28;20047;-72
2022/11/28 09:03:18;;;;;;;31.45;24.70;;;;;;;;;;5109629;28;20051;-72
2022/11/28 09:05:45;;;;;;;32.80;25.42;;;;;;;;;;5113882;28;20043;-72
2022/11/28 09:08:15;;;;;;;33.17;25.35;;;;;;;;;;5125710;28;20054;-72
2022/11/28 09:10:41;;;;;;;31.33;23.52;;;;;;;;;;5130294;27;20047;-73
2022/11/28 09:13:10;;;;;;;35.35;25.38;;;;;;;;;;5136938;27;20047;-73
2022/11/28 09:15:40;;;;;;;32.42;24.30;;;;;;;;;;5125917;27;20094;-72
2022/11/28 09:18:06;;;;;;;31.33;23.50;;;;;;;;;;5131639;27;20068;-72
2022/11/28 09:20:33;;;;;;;31.10;25.40;;;;;;;;;;5131659;27;20405;-73
2022/11/28 09:22:59;;;;;;;28.52;22.83;;;;;;;;;;5117782;27;20046;-73
2022/11/28 09:25:25;;;;;;;30.63;22.45;;;;;;;;;;5115952;28;20039;-72
2022/11/28 09:27:51;;;;;;;28.00;21.63;;;;;;;;;;5115741;28;20044;-73
2022/11/28 09:30:21;;;;;;;28.70;21.55;;;;;;;;;;5133024;27;20177;-72
2022/11/28 09:32:47;;;;;;;31.05;23.35;;;;;;;;;;5135812;27;20039;-73
2022/11/28 09:35:13;;;;;;;29.63;22.27;;;;;;;;;;5135654;27;20070;-72
2022/11/28 09:37:39;;;;;;;26.95;22.20;;;;;;;;;;5115342;27;20051;-73
2022/11/28 09:40:06;;;;;;;29.77;21.98;;;;;;;;;;5129658;27;20043;-72
2022/11/28 09:42:40;;;;;;;31.65;24.02;;;;;;;;;;5135825;27;20035;-72
2022/11/28 09:45:10;;;;;;;29.73;22.98;;;;;;;;;;5134727;27;20043;-72
2022/11/28 09:47:37;;;;;;;27.30;21.90;;;;;;;;;;5115634;28;20050;-71
2022/11/28 09:50:05;;;;;;;29.38;22.33;;;;;;;;;;5130563;27;20047;-69
2022/11/28 09:52:31;;;;;;;29.85;22.85;;;;;;;;;;5136109;27;20186;-70
2022/11/28 09:55:00;;;;;;;26.55;20.55;;;;;;;;;;5135345;27;20524;-69
2022/11/28 09:57:36;;;;;;;29.65;21.90;;;;;;;;;;5134838;27;20050;-69
2022/11/28 10:00:03;;;;;;;26.52;20.92;;;;;;;;;;5133919;27;20055;-69
2022/11/28 10:02:50;;;;;;;27.55;20.75;;;;;;;;;;5135321;27;20058;-70
2022/11/28 10:05:23;;;;;;;25.92;19.75;;;;;;;;;;5085081;28;20048;-69
2022/11/28 10:08:04;;;;;;;25.45;20.45;;;;;;;;;;5127687;27;20088;-69
2022/11/28 10:10:48;;;;;;;26.33;20.63;;;;;;;;;;5134700;27;20047;-69
2022/11/28 10:13:17;;;;;;;30.02;21.38;;;;;;;;;;5134023;27;20043;-70
2022/11/28 10:15:46;;;;;;;24.05;19.17;;;;;;;;;;5135464;27;20042;-69
2022/11/28 10:18:33;;;;;;;23.63;19.35;;;;;;;;;;5135561;27;20071;-70
2022/11/28 10:21:02;;;;;;;22.05;18.77;;;;;;;;;;5112622;27;20043;-72
2022/11/28 10:23:28;;;;;;;22.08;18.20;;;;;;;;;;5131501;27;20167;-72
2022/11/28 10:25:56;;;;;;;22.52;18.30;;;;;;;;;;5133949;27;20100;-72
2022/11/28 10:28:27;;;;;;;21.98;17.83;;;;;;;;;;5134717;27;20039;-73
2022/11/28 10:30:57;;;;;;;19.25;16.38;;;;;;;;;;5133280;27;20043;-71
2022/11/28 10:33:29;;;;;;;19.80;16.52;;;;;;;;;;5133867;27;20493;-69
2022/11/28 10:35:57;;;;;;;22.92;17.60;;;;;;;;;;5130721;27;20050;-70
2022/11/28 10:38:26;;;;;;;24.33;17.55;;;;;;;;;;5124113;27;20039;-71
2022/11/28 10:41:07;;;;;;;22.23;17.92;;;;;;;;;;5134626;27;20055;-71
2022/11/28 10:43:46;;;;;;;21.58;17.77;;;;;;;;;;5118528;27;20032;-70
2022/11/28 10:46:13;;;;;;;19.85;16.30;;;;;;;;;;5126649;27;20096;-71
2022/11/28 10:48:43;;;;;;;23.88;16.85;;;;;;;;;;5123628;27;20051;-72
2022/11/28 10:51:13;;;;;;;21.00;17.13;;;;;;;;;;5130834;27;20562;-72
2022/11/28 10:53:54;;;;;;;19.13;16.83;;;;;;;;;;5128028;27;21022;-72
2022/11/28 10:56:29;;;;;;;18.27;16.38;;;;;;;;;;5133917;27;20498;-73
2022/11/28 10:59:00;;;;;;;19.35;15.55;;;;;;;;;;5134327;27;20047;-72
2022/11/28 11:01:29;;;;;;;17.83;15.18;;;;;;;;;;5131800;27;20051;-72
2022/11/28 11:03:55;;;;;;;18.70;15.23;;;;;;;;;;5132617;27;20415;-72
2022/11/28 11:06:23;;;;;;;19.00;16.00;;;;;;;;;;5134446;27;20046;-73
2022/11/28 11:08:50;;;;;;;20.42;16.80;;;;;;;;;;5132057;27;20046;-72
2022/11/28 11:11:29;;;;;;;19.95;16.85;;;;;;;;;;5120764;27;20046;-72
2022/11/28 11:13:59;;;;;;;19.25;16.73;;;;;;;;;;5130772;27;20047;-72
2022/11/28 11:16:25;;;;;;;20.05;16.85;;;;;;;;;;5134197;27;20043;-73
2022/11/28 11:18:52;;;;;;;18.42;16.05;;;;;;;;;;5133020;27;20129;-72
2022/11/28 11:21:23;;;;;;;18.33;16.27;;;;;;;;;;5129911;27;20051;-72
2022/11/28 11:23:50;;;;;;;18.13;16.02;;;;;;;;;;5125547;27;20039;-72
2022/11/28 11:26:37;;;;;;;19.65;16.27;;;;;;;;;;5120131;27;20096;-72
2022/11/28 11:29:04;;;;;;;18.77;16.33;;;;;;;;;;5133071;27;20494;-72
2022/11/28 11:31:31;;;;;;;17.00;14.73;;;;;;;;;;5126367;27;20047;-72
2022/11/28 11:34:05;;;;;;;18.05;15.93;;;;;;;;;;5131427;27;20059;-73
2022/11/28 11:36:35;;;;;;;19.33;15.50;;;;;;;;;;5132202;27;20123;-72
2022/11/28 11:39:15;;;;;;;20.13;16.38;;;;;;;;;;5134021;27;20065;-72
2022/11/28 11:41:43;;;;;;;20.08;16.30;;;;;;;;;;5108369;28;20085;-72
2022/11/28 11:44:15;;;;;;;22.63;16.58;;;;;;;;;;5116489;27;20079;-72
2022/11/28 11:46:50;;;;;;;20.30;18.10;;;;;;;;;;5128635;27;20054;-72
2022/11/28 11:49:28;;;;;;;22.17;18.45;;;;;;;;;;5133028;27;20067;-72
2022/11/28 11:52:04;;;;;;;22.40;20.05;;;;;;;;;;5131454;27;20104;-72
2022/11/28 11:54:30;;;;;;;21.05;18.42;;;;;;;;;;5129271;27;20498;-72
2022/11/28 11:56:57;;;;;;;19.95;17.88;;;;;;;;;;5127781;27;20043;-72
2022/11/28 11:59:40;;;;;;;22.60;19.02;;;;;;;;;;5131179;27;20541;-72
2022/11/28 12:02:15;;;;;;;22.85;18.73;;;;;;;;;;5131876;27;20047;-72
2022/11/28 12:04:45;;;;;;;23.13;19.83;;;;;;;;;;5130560;27;20654;-72
2022/11/28 12:07:23;;;;;;;20.95;18.63;;;;;;;;;;5133260;27;20459;-72
2022/11/28 12:09:51;;;;;;;20.33;18.13;;;;;;;;;;5131842;27;20192;-72
2022/11/28 12:12:27;;;;;;;21.92;19.55;;;;;;;;;;5117125;27;20043;-72
2022/11/28 12:14:54;;;;;;;20.60;18.40;;;;;;;;;;5133491;27;20039;-73
2022/11/28 12:17:26;;;;;;;30.05;25.95;;;;;;;;;;5111285;28;20118;-72
2022/11/28 12:20:01;;;;;;;30.25;26.95;;;;;;;;;;5132281;27;20722;-72
2022/11/28 12:22:40;;;;;;;43.20;38.50;;;;;;;;;;5114930;28;20088;-73
2022/11/28 12:25:19;;;;;;;29.95;26.73;;;;;;;;;;5132649;28;20500;-73
2022/11/28 12:27:48;;;;;;;26.27;23.45;;;;;;;;;;5126863;28;20051;-72
2022/11/28 12:30:26;;;;;;;24.90;22.20;;;;;;;;;;5112385;28;20043;-72
2022/11/28 12:33:10;;;;;;;22.30;19.77;;;;;;;;;;5132365;28;20465;-72
2022/11/28 12:35:43;;;;;;;22.92;19.80;;;;;;;;;;5130522;28;20035;-72
2022/11/28 12:38:34;;;;;;;22.38;19.95;;;;;;;;;;5116289;28;20047;-72
2022/11/28 12:41:12;;;;;;;21.48;19.17;;;;;;;;;;5063901;28;20547;-72
2022/11/28 12:43:53;;;;;;;24.25;21.65;;;;;;;;;;5069058;28;20059;-72
2022/11/28 12:46:32;;;;;;;22.95;19.98;;;;;;;;;;5077587;28;20072;-72
2022/11/28 12:49:13;;;;;;;22.33;19.92;;;;;;;;;;5093827;28;20044;-72
2022/11/28 12:51:45;;;;;;;22.10;19.70;;;;;;;;;;5071398;28;20048;-72
2022/11/28 12:54:34;;;;;;;23.92;18.73;;;;;;;;;;5073220;28;20048;-72
2022/11/28 12:57:09;;;;;;;23.15;19.85;;;;;;;;;;5062221;28;20067;-72
2022/11/28 12:59:51;;;;;;;26.25;21.20;;;;;;;;;;5069879;28;20723;-73
2022/11/28 13:02:22;;;;;;;21.48;19.15;;;;;;;;;;5075068;28;20121;-72
2022/11/28 13:05:03;;;;;;;24.33;19.88;;;;;;;;;;5093562;28;20175;-72
2022/11/28 13:07:37;;;;;;;24.20;20.88;;;;;;;;;;5076582;28;20466;-72
2022/11/28 13:10:09;;;;;;;26.90;21.48;;;;;;;;;;5074396;28;20045;-72
2022/11/28 13:12:41;;;;;;;23.38;20.85;;;;;;;;;;5070756;28;20133;-72
2022/11/28 13:15:15;;;;;;;28.42;22.80;;;;;;;;;;5068356;28;20048;-72
2022/11/28 13:17:55;;;;;;;27.02;23.77;;;;;;;;;;5076938;28;20055;-72
2022/11/28 13:20:32;;;;;;;25.05;21.08;;;;;;;;;;5118100;27;20133;-72
2022/11/28 13:23:15;;;;;;;23.27;20.63;;;;;;;;;;5115927;28;20047;-72
2022/11/28 13:25:41;;;;;;;27.38;22.10;;;;;;;;;;5122578;27;20047;-72
2022/11/28 13:28:10;;;;;;;25.50;22.23;;;;;;;;;;5132974;27;20187;-72
2022/11/28 13:30:42;;;;;;;30.95;23.08;;;;;;;;;;5120012;27;20042;-72
2022/11/28 13:33:11;;;;;;;31.05;22.73;;;;;;;;;;5134759;27;20401;-72
2022/11/28 13:35:38;;;;;;;25.70;21.90;;;;;;;;;;5134636;27;20039;-72
2022/11/28 13:38:13;;;;;;;24.52;21.75;;;;;;;;;;5135283;27;20062;-72
2022/11/28 13:40:41;;;;;;;27.33;22.75;;;;;;;;;;5135432;27;20100;-73
2022/11/28 13:43:10;;;;;;;27.55;23.25;;;;;;;;;;5135749;27;20066;-72
2022/11/28 13:45:46;;;;;;;26.75;22.98;;;;;;;;;;5133751;27;20043;-72
2022/11/28 13:48:31;;;;;;;27.92;23.08;;;;;;;;;;5136204;27;20057;-72
2022/11/28 13:51:01;;;;;;;26.05;22.48;;;;;;;;;;5129523;27;20042;-72
2022/11/28 13:53:27;;;;;;;27.05;22.65;;;;;;;;;;5119850;27;20039;-72
2022/11/28 13:56:02;;;;;;;29.30;23.63;;;;;;;;;;5118919;27;20056;-72
2022/11/28 13:58:31;;;;;;;25.98;22.40;;;;;;;;;;5127362;27;20514;-72
2022/11/28 14:01:12;;;;;;;27.48;24.55;;;;;;;;;;5135293;27;20054;-73
2022/11/28 14:03:48;;;;;;;31.15;24.55;;;;;;;;;;5128467;27;20099;-72
2022/11/28 14:06:22;;;;;;;28.63;24.73;;;;;;;;;;5123025;27;20065;-72
2022/11/28 14:08:56;;;;;;;29.25;24.60;;;;;;;;;;5134743;27;20122;-72
2022/11/28 14:11:41;;;;;;;27.00;23.20;;;;;;;;;;5120821;27;20047;-72
2022/11/28 14:14:15;;;;;;;29.83;23.45;;;;;;;;;;5115084;28;20050;-72
2022/11/28 14:16:44;;;;;;;28.45;23.92;;;;;;;;;;5118146;27;20431;-72
2022/11/28 14:19:15;;;;;;;27.25;23.20;;;;;;;;;;5134213;27;20062;-72
2022/11/28 14:22:03;;;;;;;24.52;21.85;;;;;;;;;;5134110;27;20122;-72
2022/11/28 14:24:35;;;;;;;27.20;21.90;;;;;;;;;;5129432;27;20044;-72
2022/11/28 14:27:03;;;;;;;25.20;20.30;;;;;;;;;;5129280;27;20101;-74
2022/11/28 14:29:34;;;;;;;26.15;22.00;;;;;;;;;;5123709;27;20036;-72
2022/11/28 14:32:00;;;;;;;25.77;20.85;;;;;;;;;;5118901;27;20114;-72
2022/11/28 14:34:43;;;;;;;25.73;21.33;;;;;;;;;;5133263;27;20046;-72
2022/11/28 14:37:19;;;;;;;26.65;21.48;;;;;;;;;;5131134;27;20045;-72
2022/11/28 14:39:46;;;;;;;30.00;23.38;;;;;;;;;;5133125;27;20118;-72